Bakers Mills, New York
Current Conditions -  °F | °C
As of 8:03 AM on Friday 24 Oct 2014 (Local Time) from KGFL Reporting Station
Haze Haze  
Wind Chill: 44°   Ceiling: 400
Heat Index: 44°   Visibility: 3mi
Dew Point: 43°   Wind: 0mph
Humidity: 96%   Direction: NA
Pressure: 29.84"   Gusts: NA
Location:  43.61°N, 74.03°W
Report Text: KGFL 241203Z AUTO 00000KT 3SM BR OVC004 07/06 A2984 RMK AO2 RAE1154 P0000 T00670061
Loading
Personal Weather Stations






























Interactive Weather Map
Tropical Storm Tracking
New forecast layout! Learn more

10-Day Weather Forecast

Advertisements
Track Severe Weather on mobile